sensor_id;sensor_type;location;lat;lon;timestamp;temperature;humidity
18712;DHT22;9485;49.386;8.674;2023-02-17T00:03:22;13.90;67.20
18712;DHT22;9485;49.386;8.674;2023-02-17T00:08:43;13.90;67.10
18712;DHT22;9485;49.386;8.674;2023-02-17T00:14:05;13.90;67.00
18712;DHT22;9485;49.386;8.674;2023-02-17T00:19:26;13.90;66.90
18712;DHT22;9485;49.386;8.674;2023-02-17T00:24:47;13.90;66.90
18712;DHT22;9485;49.386;8.674;2023-02-17T00:30:10;13.90;67.10
18712;DHT22;9485;49.386;8.674;2023-02-17T00:35:31;13.90;66.90
18712;DHT22;9485;49.386;8.674;2023-02-17T00:40:52;13.90;67.40
18712;DHT22;9485;49.386;8.674;2023-02-17T00:46:14;13.80;67.50
18712;DHT22;9485;49.386;8.674;2023-02-17T00:51:37;13.70;67.60
18712;DHT22;9485;49.386;8.674;2023-02-17T00:56:58;13.50;67.70
18712;DHT22;9485;49.386;8.674;2023-02-17T01:02:19;13.50;68.10
18712;DHT22;9485;49.386;8.674;2023-02-17T01:07:40;13.40;68.30
18712;DHT22;9485;49.386;8.674;2023-02-17T01:13:01;13.40;68.40
18712;DHT22;9485;49.386;8.674;2023-02-17T01:18:23;13.40;68.60
18712;DHT22;9485;49.386;8.674;2023-02-17T01:23:44;13.40;68.70
18712;DHT22;9485;49.386;8.674;2023-02-17T01:29:05;13.40;68.70
18712;DHT22;9485;49.386;8.674;2023-02-17T01:34:28;13.40;68.80
18712;DHT22;9485;49.386;8.674;2023-02-17T01:39:49;13.40;68.70
18712;DHT22;9485;49.386;8.674;2023-02-17T01:45:31;13.40;68.90
18712;DHT22;9485;49.386;8.674;2023-02-17T01:50:59;13.50;68.30
18712;DHT22;9485;49.386;8.674;2023-02-17T01:56:23;13.50;68.70
18712;DHT22;9485;49.386;8.674;2023-02-17T02:01:46;13.50;68.90
18712;DHT22;9485;49.386;8.674;2023-02-17T02:07:13;13.50;69.00
18712;DHT22;9485;49.386;8.674;2023-02-17T02:12:39;13.60;69.00
18712;DHT22;9485;49.386;8.674;2023-02-17T02:18:14;13.60;69.10
18712;DHT22;9485;49.386;8.674;2023-02-17T02:24:07;13.70;69.00
18712;DHT22;9485;49.386;8.674;2023-02-17T02:29:55;13.70;68.80
18712;DHT22;9485;49.386;8.674;2023-02-17T02:35:28;13.80;68.70
18712;DHT22;9485;49.386;8.674;2023-02-17T02:41:00;13.80;69.30
18712;DHT22;9485;49.386;8.674;2023-02-17T02:46:26;13.80;69.40
18712;DHT22;9485;49.386;8.674;2023-02-17T02:51:52;13.90;69.60
18712;DHT22;9485;49.386;8.674;2023-02-17T02:57:27;13.90;69.60
18712;DHT22;9485;49.386;8.674;2023-02-17T03:03:06;13.90;69.70
18712;DHT22;9485;49.386;8.674;2023-02-17T03:08:36;13.90;69.70
18712;DHT22;9485;49.386;8.674;2023-02-17T03:14:00;13.90;69.90
18712;DHT22;9485;49.386;8.674;2023-02-17T03:19:23;13.90;70.10
18712;DHT22;9485;49.386;8.674;2023-02-17T03:24:45;13.90;70.20
18712;DHT22;9485;49.386;8.674;2023-02-17T03:30:08;13.80;70.40
18712;DHT22;9485;49.386;8.674;2023-02-17T03:35:29;13.80;70.70
18712;DHT22;9485;49.386;8.674;2023-02-17T03:40:51;13.90;70.80
18712;DHT22;9485;49.386;8.674;2023-02-17T03:46:13;13.80;70.90
18712;DHT22;9485;49.386;8.674;2023-02-17T03:51:36;13.80;71.10
18712;DHT22;9485;49.386;8.674;2023-02-17T03:56:58;13.80;71.20
18712;DHT22;9485;49.386;8.674;2023-02-17T04:02:19;13.80;71.50
18712;DHT22;9485;49.386;8.674;2023-02-17T04:07:40;13.80;71.40
18712;DHT22;9485;49.386;8.674;2023-02-17T04:13:02;13.80;71.60
18712;DHT22;9485;49.386;8.674;2023-02-17T04:18:23;13.80;71.80
18712;DHT22;9485;49.386;8.674;2023-02-17T04:23:44;13.80;72.00
18712;DHT22;9485;49.386;8.674;2023-02-17T04:29:06;13.80;72.10
18712;DHT22;9485;49.386;8.674;2023-02-17T04:34:26;13.80;72.20
18712;DHT22;9485;49.386;8.674;2023-02-17T04:39:47;13.80;72.30
18712;DHT22;9485;49.386;8.674;2023-02-17T04:45:09;13.80;72.40
18712;DHT22;9485;49.386;8.674;2023-02-17T04:50:30;13.80;72.50
18712;DHT22;9485;49.386;8.674;2023-02-17T04:55:52;13.70;72.40
18712;DHT22;9485;49.386;8.674;2023-02-17T05:01:14;13.80;72.60
18712;DHT22;9485;49.386;8.674;2023-02-17T05:06:35;13.70;72.60
18712;DHT22;9485;49.386;8.674;2023-02-17T05:11:55;13.70;72.70
18712;DHT22;9485;49.386;8.674;2023-02-17T05:17:18;13.70;72.90
18712;DHT22;9485;49.386;8.674;2023-02-17T05:22:38;13.70;73.10
18712;DHT22;9485;49.386;8.674;2023-02-17T05:27:59;13.70;73.30
18712;DHT22;9485;49.386;8.674;2023-02-17T05:33:21;13.60;73.40
18712;DHT22;9485;49.386;8.674;2023-02-17T05:38:42;13.60;73.60
18712;DHT22;9485;49.386;8.674;2023-02-17T05:44:06;13.60;73.80
18712;DHT22;9485;49.386;8.674;2023-02-17T05:49:28;13.60;74.00
18712;DHT22;9485;49.386;8.674;2023-02-17T05:54:49;13.60;74.10
18712;DHT22;9485;49.386;8.674;2023-02-17T06:00:10;13.60;74.20
18712;DHT22;9485;49.386;8.674;2023-02-17T06:05:33;13.60;74.40
18712;DHT22;9485;49.386;8.674;2023-02-17T06:10:53;13.60;74.60
18712;DHT22;9485;49.386;8.674;2023-02-17T06:16:14;13.60;74.80
18712;DHT22;9485;49.386;8.674;2023-02-17T06:21:36;13.60;75.00
18712;DHT22;9485;49.386;8.674;2023-02-17T06:26:57;13.50;75.10
18712;DHT22;9485;49.386;8.674;2023-02-17T06:32:18;13.50;75.30
18712;DHT22;9485;49.386;8.674;2023-02-17T06:37:40;13.50;75.40
18712;DHT22;9485;49.386;8.674;2023-02-17T06:43:01;13.50;75.60
18712;DHT22;9485;49.386;8.674;2023-02-17T06:48:22;13.50;75.80
18712;DHT22;9485;49.386;8.674;2023-02-17T06:53:44;13.40;75.80
18712;DHT22;9485;49.386;8.674;2023-02-17T06:59:05;13.40;76.00
18712;DHT22;9485;49.386;8.674;2023-02-17T07:04:26;13.40;76.20
18712;DHT22;9485;49.386;8.674;2023-02-17T07:09:48;13.40;76.40
18712;DHT22;9485;49.386;8.674;2023-02-17T07:15:09;13.40;76.60
18712;DHT22;9485;49.386;8.674;2023-02-17T07:20:30;13.40;76.80
18712;DHT22;9485;49.386;8.674;2023-02-17T07:25:52;13.40;77.00
18712;DHT22;9485;49.386;8.674;2023-02-17T07:31:15;13.40;77.30
18712;DHT22;9485;49.386;8.674;2023-02-17T07:36:36;13.40;77.50
18712;DHT22;9485;49.386;8.674;2023-02-17T07:41:59;13.40;77.50
18712;DHT22;9485;49.386;8.674;2023-02-17T07:47:20;13.40;77.70
18712;DHT22;9485;49.386;8.674;2023-02-17T07:52:41;13.40;77.70
18712;DHT22;9485;49.386;8.674;2023-02-17T07:58:04;13.40;77.80
18712;DHT22;9485;49.386;8.674;2023-02-17T08:03:25;13.40;77.90
18712;DHT22;9485;49.386;8.674;2023-02-17T08:08:47;13.50;78.00
18712;DHT22;9485;49.386;8.674;2023-02-17T08:14:29;13.50;78.10
18712;DHT22;9485;49.386;8.674;2023-02-17T08:19:51;13.50;78.30
18712;DHT22;9485;49.386;8.674;2023-02-17T08:25:12;13.50;78.20
18712;DHT22;9485;49.386;8.674;2023-02-17T08:30:35;13.50;78.30
18712;DHT22;9485;49.386;8.674;2023-02-17T08:35:57;13.60;78.70
18712;DHT22;9485;49.386;8.674;2023-02-17T08:41:21;13.60;78.60
18712;DHT22;9485;49.386;8.674;2023-02-17T08:46:45;13.60;78.70
18712;DHT22;9485;49.386;8.674;2023-02-17T08:52:06;13.70;78.70
18712;DHT22;9485;49.386;8.674;2023-02-17T08:57:27;13.70;78.70
18712;DHT22;9485;49.386;8.674;2023-02-17T09:02:49;13.70;78.70
18712;DHT22;9485;49.386;8.674;2023-02-17T09:08:10;13.80;79.60
18712;DHT22;9485;49.386;8.674;2023-02-17T09:13:31;13.80;78.90
18712;DHT22;9485;49.386;8.674;2023-02-17T09:18:53;13.80;79.00
18712;DHT22;9485;49.386;8.674;2023-02-17T09:24:15;13.80;79.10
18712;DHT22;9485;49.386;8.674;2023-02-17T09:29:37;13.90;79.20
18712;DHT22;9485;49.386;8.674;2023-02-17T09:34:59;13.90;79.20
18712;DHT22;9485;49.386;8.674;2023-02-17T09:40:39;13.90;79.30
18712;DHT22;9485;49.386;8.674;2023-02-17T09:46:08;13.90;79.50
18712;DHT22;9485;49.386;8.674;2023-02-17T09:51:34;14.00;79.60
18712;DHT22;9485;49.386;8.674;2023-02-17T09:56:58;14.00;79.60
18712;DHT22;9485;49.386;8.674;2023-02-17T10:02:26;14.00;79.60
18712;DHT22;9485;49.386;8.674;2023-02-17T10:07:56;13.90;79.70
18712;DHT22;9485;49.386;8.674;2023-02-17T10:13:26;13.90;79.90
18712;DHT22;9485;49.386;8.674;2023-02-17T10:18:54;13.90;80.00
18712;DHT22;9485;49.386;8.674;2023-02-17T10:24:19;13.90;80.20
18712;DHT22;9485;49.386;8.674;2023-02-17T10:29:48;13.90;80.30
18712;DHT22;9485;49.386;8.674;2023-02-17T10:35:22;13.90;80.60
18712;DHT22;9485;49.386;8.674;2023-02-17T10:40:49;13.90;80.60
18712;DHT22;9485;49.386;8.674;2023-02-17T10:46:15;13.90;80.70
18712;DHT22;9485;49.386;8.674;2023-02-17T10:51:38;13.90;80.90
18712;DHT22;9485;49.386;8.674;2023-02-17T10:57:06;13.90;81.00
18712;DHT22;9485;49.386;8.674;2023-02-17T11:02:34;13.90;81.10
18712;DHT22;9485;49.386;8.674;2023-02-17T11:08:01;13.90;81.30
18712;DHT22;9485;49.386;8.674;2023-02-17T11:13:31;14.00;81.50
18712;DHT22;9485;49.386;8.674;2023-02-17T11:18:55;14.00;81.60
18712;DHT22;9485;49.386;8.674;2023-02-17T11:24:16;14.10;81.50
18712;DHT22;9485;49.386;8.674;2023-02-17T11:29:39;14.20;81.50
18712;DHT22;9485;49.386;8.674;2023-02-17T11:35:00;14.20;81.50
18712;DHT22;9485;49.386;8.674;2023-02-17T11:40:26;14.20;81.50
18712;DHT22;9485;49.386;8.674;2023-02-17T11:45:55;14.30;81.60
18712;DHT22;9485;49.386;8.674;2023-02-17T11:51:28;14.40;81.60
18712;DHT22;9485;49.386;8.674;2023-02-17T11:57:03;14.40;81.60
18712;DHT22;9485;49.386;8.674;2023-02-17T12:09:00;14.60;81.60
18712;DHT22;9485;49.386;8.674;2023-02-17T12:14:44;14.70;81.40
18712;DHT22;9485;49.386;8.674;2023-02-17T12:20:30;14.70;81.30
18712;DHT22;9485;49.386;8.674;2023-02-17T12:26:03;14.80;81.20
18712;DHT22;9485;49.386;8.674;2023-02-17T12:31:45;14.80;81.20
18712;DHT22;9485;49.386;8.674;2023-02-17T12:37:19;14.90;81.20
18712;DHT22;9485;49.386;8.674;2023-02-17T12:42:49;14.90;81.20
18712;DHT22;9485;49.386;8.674;2023-02-17T12:48:20;14.90;81.90
18712;DHT22;9485;49.386;8.674;2023-02-17T12:53:49;14.90;81.10
18712;DHT22;9485;49.386;8.674;2023-02-17T12:59:16;15.00;81.20
18712;DHT22;9485;49.386;8.674;2023-02-17T13:04:41;15.00;81.20
18712;DHT22;9485;49.386;8.674;2023-02-17T13:10:15;15.00;81.20
18712;DHT22;9485;49.386;8.674;2023-02-17T13:15:40;15.10;81.40
18712;DHT22;9485;49.386;8.674;2023-02-17T13:21:15;15.10;81.50
18712;DHT22;9485;49.386;8.674;2023-02-17T13:26:40;15.20;81.50
18712;DHT22;9485;49.386;8.674;2023-02-17T13:32:05;15.30;81.50
18712;DHT22;9485;49.386;8.674;2023-02-17T13:37:38;15.40;81.60
18712;DHT22;9485;49.386;8.674;2023-02-17T13:43:13;15.50;81.20
18712;DHT22;9485;49.386;8.674;2023-02-17T13:48:35;15.70;81.20
18712;DHT22;9485;49.386;8.674;2023-02-17T13:53:56;15.70;81.00
18712;DHT22;9485;49.386;8.674;2023-02-17T13:59:26;15.70;80.70
18712;DHT22;9485;49.386;8.674;2023-02-17T14:04:47;15.80;80.50
18712;DHT22;9485;49.386;8.674;2023-02-17T14:10:16;15.80;80.30
18712;DHT22;9485;49.386;8.674;2023-02-17T14:15:51;15.80;80.20
18712;DHT22;9485;49.386;8.674;2023-02-17T14:21:24;15.70;80.20
18712;DHT22;9485;49.386;8.674;2023-02-17T14:26:47;15.70;80.10
18712;DHT22;9485;49.386;8.674;2023-02-17T14:32:28;15.70;80.20
18712;DHT22;9485;49.386;8.674;2023-02-17T14:37:50;15.70;80.00
18712;DHT22;9485;49.386;8.674;2023-02-17T14:43:11;15.70;80.10
18712;DHT22;9485;49.386;8.674;2023-02-17T14:48:33;15.70;80.20
18712;DHT22;9485;49.386;8.674;2023-02-17T14:53:54;15.60;80.10
18712;DHT22;9485;49.386;8.674;2023-02-17T14:59:14;15.50;80.10
18712;DHT22;9485;49.386;8.674;2023-02-17T15:04:36;15.50;80.30
18712;DHT22;9485;49.386;8.674;2023-02-17T15:09:57;15.50;80.40
18712;DHT22;9485;49.386;8.674;2023-02-17T15:15:18;15.40;80.50
18712;DHT22;9485;49.386;8.674;2023-02-17T15:20:42;15.40;80.60
18712;DHT22;9485;49.386;8.674;2023-02-17T15:26:07;15.40;80.80
18712;DHT22;9485;49.386;8.674;2023-02-17T15:31:31;15.40;80.80
18712;DHT22;9485;49.386;8.674;2023-02-17T15:36:55;15.40;80.70
18712;DHT22;9485;49.386;8.674;2023-02-17T15:42:18;15.40;80.60
18712;DHT22;9485;49.386;8.674;2023-02-17T15:47:38;15.40;80.70
18712;DHT22;9485;49.386;8.674;2023-02-17T15:53:01;15.30;80.70
18712;DHT22;9485;49.386;8.674;2023-02-17T15:58:22;15.30;80.70
18712;DHT22;9485;49.386;8.674;2023-02-17T16:03:43;15.30;80.80
18712;DHT22;9485;49.386;8.674;2023-02-17T16:09:05;15.20;80.80
18712;DHT22;9485;49.386;8.674;2023-02-17T16:14:32;15.20;80.90
18712;DHT22;9485;49.386;8.674;2023-02-17T16:19:54;15.20;81.00
18712;DHT22;9485;49.386;8.674;2023-02-17T16:25:18;15.20;81.10
18712;DHT22;9485;49.386;8.674;2023-02-17T16:30:40;15.10;81.10
18712;DHT22;9485;49.386;8.674;2023-02-17T16:36:01;15.10;81.20
18712;DHT22;9485;49.386;8.674;2023-02-17T16:41:23;15.10;81.30
18712;DHT22;9485;49.386;8.674;2023-02-17T16:46:46;15.00;81.30
18712;DHT22;9485;49.386;8.674;2023-02-17T16:52:21;15.00;81.40
18712;DHT22;9485;49.386;8.674;2023-02-17T16:57:46;15.00;81.60
18712;DHT22;9485;49.386;8.674;2023-02-17T17:03:07;15.00;81.60
18712;DHT22;9485;49.386;8.674;2023-02-17T17:08:28;15.00;81.60
18712;DHT22;9485;49.386;8.674;2023-02-17T17:13:50;15.00;81.60
18712;DHT22;9485;49.386;8.674;2023-02-17T17:19:12;15.00;81.60
18712;DHT22;9485;49.386;8.674;2023-02-17T17:24:32;15.00;81.60
18712;DHT22;9485;49.386;8.674;2023-02-17T17:29:54;15.00;81.70
18712;DHT22;9485;49.386;8.674;2023-02-17T17:35:15;15.00;81.60
18712;DHT22;9485;49.386;8.674;2023-02-17T17:40:36;15.00;81.70
18712;DHT22;9485;49.386;8.674;2023-02-17T17:46:12;15.00;81.70
18712;DHT22;9485;49.386;8.674;2023-02-17T17:51:35;15.00;81.80
18712;DHT22;9485;49.386;8.674;2023-02-17T17:56:56;14.90;81.80
18712;DHT22;9485;49.386;8.674;2023-02-17T18:02:18;14.90;81.80
18712;DHT22;9485;49.386;8.674;2023-02-17T18:07:40;14.90;81.90
18712;DHT22;9485;49.386;8.674;2023-02-17T18:13:02;14.90;82.00
18712;DHT22;9485;49.386;8.674;2023-02-17T18:18:24;14.90;82.00
18712;DHT22;9485;49.386;8.674;2023-02-17T18:23:47;14.90;82.10
18712;DHT22;9485;49.386;8.674;2023-02-17T18:29:07;14.90;82.20
18712;DHT22;9485;49.386;8.674;2023-02-17T18:34:29;14.70;82.20
18712;DHT22;9485;49.386;8.674;2023-02-17T18:39:50;14.80;82.40
18712;DHT22;9485;49.386;8.674;2023-02-17T18:45:11;14.90;82.50
18712;DHT22;9485;49.386;8.674;2023-02-17T18:50:34;14.80;82.60
18712;DHT22;9485;49.386;8.674;2023-02-17T18:55:55;14.80;82.70
18712;DHT22;9485;49.386;8.674;2023-02-17T19:01:17;14.70;82.60
18712;DHT22;9485;49.386;8.674;2023-02-17T19:06:42;14.80;82.70
18712;DHT22;9485;49.386;8.674;2023-02-17T19:12:04;14.80;82.70
18712;DHT22;9485;49.386;8.674;2023-02-17T19:17:27;14.80;82.70
18712;DHT22;9485;49.386;8.674;2023-02-17T19:22:49;14.80;83.10
18712;DHT22;9485;49.386;8.674;2023-02-17T19:28:10;14.80;82.60
18712;DHT22;9485;49.386;8.674;2023-02-17T19:33:30;14.80;82.70
18712;DHT22;9485;49.386;8.674;2023-02-17T19:38:54;14.80;82.70
18712;DHT22;9485;49.386;8.674;2023-02-17T19:44:16;14.80;82.80
18712;DHT22;9485;49.386;8.674;2023-02-17T19:49:38;14.80;82.80
18712;DHT22;9485;49.386;8.674;2023-02-17T19:55:00;14.80;82.80
18712;DHT22;9485;49.386;8.674;2023-02-17T20:00:21;14.80;82.80
18712;DHT22;9485;49.386;8.674;2023-02-17T20:05:41;14.80;82.80
18712;DHT22;9485;49.386;8.674;2023-02-17T20:11:05;14.80;82.80
18712;DHT22;9485;49.386;8.674;2023-02-17T20:16:27;14.90;82.80
18712;DHT22;9485;49.386;8.674;2023-02-17T20:21:49;14.80;82.70
18712;DHT22;9485;49.386;8.674;2023-02-17T20:27:11;14.80;82.70
18712;DHT22;9485;49.386;8.674;2023-02-17T20:32:31;14.90;82.80
18712;DHT22;9485;49.386;8.674;2023-02-17T20:37:52;14.90;82.80
18712;DHT22;9485;49.386;8.674;2023-02-17T20:43:14;14.90;82.80
18712;DHT22;9485;49.386;8.674;2023-02-17T20:48:35;14.90;82.80
18712;DHT22;9485;49.386;8.674;2023-02-17T20:53:55;14.90;82.70
18712;DHT22;9485;49.386;8.674;2023-02-17T20:59:18;14.90;82.80
18712;DHT22;9485;49.386;8.674;2023-02-17T21:04:39;14.90;82.70
18712;DHT22;9485;49.386;8.674;2023-02-17T21:10:00;14.90;82.80
18712;DHT22;9485;49.386;8.674;2023-02-17T21:15:22;14.90;82.80
18712;DHT22;9485;49.386;8.674;2023-02-17T21:20:43;14.90;82.80
18712;DHT22;9485;49.386;8.674;2023-02-17T21:26:05;14.90;82.80
18712;DHT22;9485;49.386;8.674;2023-02-17T21:31:28;14.90;82.80
18712;DHT22;9485;49.386;8.674;2023-02-17T21:36:49;14.90;82.90
18712;DHT22;9485;49.386;8.674;2023-02-17T21:42:09;15.00;82.80
18712;DHT22;9485;49.386;8.674;2023-02-17T21:47:32;15.00;82.90
18712;DHT22;9485;49.386;8.674;2023-02-17T21:52:53;15.00;82.90
18712;DHT22;9485;49.386;8.674;2023-02-17T21:58:13;15.00;82.90
18712;DHT22;9485;49.386;8.674;2023-02-17T22:03:35;15.00;82.90
18712;DHT22;9485;49.386;8.674;2023-02-17T22:08:57;15.00;82.90
18712;DHT22;9485;49.386;8.674;2023-02-17T22:14:19;15.00;82.90
18712;DHT22;9485;49.386;8.674;2023-02-17T22:19:41;15.00;82.90
18712;DHT22;9485;49.386;8.674;2023-02-17T22:25:02;15.00;83.00
18712;DHT22;9485;49.386;8.674;2023-02-17T22:30:22;15.00;82.90
18712;DHT22;9485;49.386;8.674;2023-02-17T22:35:44;15.00;82.90
18712;DHT22;9485;49.386;8.674;2023-02-17T22:41:06;15.00;83.00
18712;DHT22;9485;49.386;8.674;2023-02-17T22:46:28;15.00;83.00
18712;DHT22;9485;49.386;8.674;2023-02-17T22:51:51;15.00;82.90
18712;DHT22;9485;49.386;8.674;2023-02-17T22:57:12;15.10;83.00
18712;DHT22;9485;49.386;8.674;2023-02-17T23:02:33;15.10;83.00
18712;DHT22;9485;49.386;8.674;2023-02-17T23:07:55;15.10;83.00
18712;DHT22;9485;49.386;8.674;2023-02-17T23:13:16;15.10;82.90
18712;DHT22;9485;49.386;8.674;2023-02-17T23:18:37;15.10;82.90
18712;DHT22;9485;49.386;8.674;2023-02-17T23:23:59;15.10;82.90
18712;DHT22;9485;49.386;8.674;2023-02-17T23:29:21;15.10;82.90
18712;DHT22;9485;49.386;8.674;2023-02-17T23:34:42;15.10;83.00
18712;DHT22;9485;49.386;8.674;2023-02-17T23:40:05;15.10;83.00
18712;DHT22;9485;49.386;8.674;2023-02-17T23:45:27;15.10;83.10
18712;DHT22;9485;49.386;8.674;2023-02-17T23:50:54;15.10;83.00
18712;DHT22;9485;49.386;8.674;2023-02-17T23:56:19;15.10;83.00
